Time,TemperatureF,DewpointF,PressureIn,WindDirection,WindDirectionDegrees,WindSpeedMPH,WindSpeedGustMPH,Humidity,HourlyPrecipIn,Conditions,Clouds,dailyrainin,SolarRadiationWatts/m^2,SoftwareType,DateUTC
2013-03-05 00:10:00,44.1,41.0,30.15,NNW,338,0.0,-999.0,88,-99.99,,,0.00,0,weatherlink.com 1.10,2013-03-05 05:10:00,
2013-03-05 00:25:00,44.1,41.0,30.14,NNW,338,0.0,-999.0,89,-99.99,,,0.00,0,weatherlink.com 1.10,2013-03-05 05:25:00,
2013-03-05 00:40:00,44.1,41.0,30.13,NNW,338,0.0,-999.0,89,-99.99,,,0.00,0,weatherlink.com 1.10,2013-03-05 05:40:00,
2013-03-05 00:55:00,44.0,41.0,30.13,NNW,338,0.0,-999.0,89,-99.99,,,0.00,0,weatherlink.com 1.10,2013-03-05 05:55:00,
2013-03-05 01:10:00,43.8,41.0,30.13,NNW,338,0.0,-999.0,89,-99.99,,,0.00,0,weatherlink.com 1.10,2013-03-05 06:10:00,
2013-03-05 01:35:00,43.6,41.0,30.13,NNW,338,0.0,-999.0,90,-99.99,,,0.00,0,weatherlink.com 1.10,2013-03-05 06:35:00,
2013-03-05 01:40:00,43.6,41.0,30.14,NNW,338,0.0,-999.0,90,-99.99,,,0.00,0,weatherlink.com 1.10,2013-03-05 06:40:00,
2013-03-05 01:55:00,43.4,41.0,30.13,NNW,338,0.0,-999.0,90,-99.99,,,0.00,0,weatherlink.com 1.10,2013-03-05 06:55:00,
2013-03-05 02:10:00,43.2,41.0,30.12,NNW,338,0.0,-999.0,91,-99.99,,,0.00,0,weatherlink.com 1.10,2013-03-05 07:10:00,
2013-03-05 02:25:00,43.1,41.0,30.13,NNW,338,0.0,-999.0,91,-99.99,,,0.00,0,weatherlink.com 1.10,2013-03-05 07:25:00,
2013-03-05 02:40:00,42.8,40.0,30.13,NNW,338,0.0,-999.0,91,-99.99,,,0.00,0,weatherlink.com 1.10,2013-03-05 07:40:00,
2013-03-05 02:55:00,42.8,41.0,30.13,NNW,338,0.0,-999.0,92,-99.99,,,0.00,0,weatherlink.com 1.10,2013-03-05 07:55:00,
2013-03-05 03:10:00,42.5,40.0,30.13,NNW,338,0.0,-999.0,92,-99.99,,,0.00,0,weatherlink.com 1.10,2013-03-05 08:10:00,
2013-03-05 03:25:00,42.1,40.0,30.12,NNW,338,0.0,-999.0,92,-99.99,,,0.00,0,weatherlink.com 1.10,2013-03-05 08:25:00,
2013-03-05 03:40:00,41.9,40.0,30.12,NNW,338,0.0,-999.0,92,-99.99,,,0.00,0,weatherlink.com 1.10,2013-03-05 08:40:00,
2013-03-05 03:55:00,41.8,40.0,30.12,NNW,338,0.0,-999.0,92,-99.99,,,0.00,0,weatherlink.com 1.10,2013-03-05 08:55:00,
2013-03-05 04:10:00,41.5,40.0,30.12,NNW,338,0.0,-999.0,93,-99.99,,,0.00,0,weatherlink.com 1.10,2013-03-05 09:10:00,
2013-03-05 04:25:00,41.4,40.0,30.12,NNW,338,0.0,-999.0,93,-99.99,,,0.00,0,weatherlink.com 1.10,2013-03-05 09:25:00,
2013-03-05 04:40:00,41.5,40.0,30.12,NNW,338,0.0,-999.0,93,-99.99,,,0.00,0,weatherlink.com 1.10,2013-03-05 09:40:00,
2013-03-05 04:55:00,41.5,40.0,30.12,NNW,338,0.0,-999.0,93,-99.99,,,0.00,0,weatherlink.com 1.10,2013-03-05 09:55:00,
2013-03-05 05:10:00,43.6,42.0,30.12,NNW,338,0.0,-999.0,95,-99.99,,,0.00,0,weatherlink.com 1.10,2013-03-05 10:10:00,
2013-03-05 05:26:00,45.9,45.0,30.13,SSE,165,0.0,-999.0,95,-99.99,,,0.00,0,weatherlink.com 1.10,2013-03-05 10:26:00,
2013-03-05 05:41:00,46.6,45.0,30.13,SSE,165,0.0,-999.0,93,-99.99,,,0.00,0,weatherlink.com 1.10,2013-03-05 10:41:00,
2013-03-05 05:56:00,46.5,45.0,30.13,South,175,0.0,-999.0,93,-99.99,,,0.00,0,weatherlink.com 1.10,2013-03-05 10:56:00,
2013-03-05 06:11:00,46.8,45.0,30.14,SE,145,0.0,-999.0,92,-99.99,,,0.00,0,weatherlink.com 1.10,2013-03-05 11:11:00,
2013-03-05 06:26:00,47.0,45.0,30.14,SE,145,0.0,-999.0,91,-99.99,,,0.00,0,weatherlink.com 1.10,2013-03-05 11:26:00,
2013-03-05 06:41:00,46.6,44.0,30.14,SE,145,0.0,-999.0,91,-99.99,,,0.00,0,weatherlink.com 1.10,2013-03-05 11:41:00,
2013-03-05 06:56:00,46.0,44.0,30.14,SE,145,0.0,-999.0,91,-99.99,,,0.00,5,weatherlink.com 1.10,2013-03-05 11:56:00,
2013-03-05 07:11:00,45.5,43.0,30.15,SE,145,0.0,-999.0,91,-99.99,,,0.00,16,weatherlink.com 1.10,2013-03-05 12:11:00,
2013-03-05 07:26:00,45.9,44.0,30.16,SE,145,0.0,-999.0,93,-99.99,,,0.00,67,weatherlink.com 1.10,2013-03-05 12:26:00,
2013-03-05 07:41:00,48.2,46.0,30.15,SE,145,0.0,-999.0,93,-99.99,,,0.00,116,weatherlink.com 1.10,2013-03-05 12:41:00,
2013-03-05 07:56:00,52.4,49.0,30.16,SSE,152,0.0,-999.0,89,-99.99,,,0.00,179,weatherlink.com 1.10,2013-03-05 12:56:00,
2013-03-05 08:11:00,55.6,49.0,30.16,ESE,117,0.0,-999.0,79,-99.99,,,0.00,250,weatherlink.com 1.10,2013-03-05 13:11:00,
2013-03-05 08:26:00,57.8,50.0,30.16,WSW,243,0.0,-999.0,74,-99.99,,,0.00,309,weatherlink.com 1.10,2013-03-05 13:26:00,
2013-03-05 08:41:00,59.7,50.0,30.16,SE,136,0.0,-999.0,71,-99.99,,,0.00,371,weatherlink.com 1.10,2013-03-05 13:41:00,
2013-03-05 08:56:00,61.8,51.0,30.17,ESE,115,0.0,-999.0,69,-99.99,,,0.00,425,weatherlink.com 1.10,2013-03-05 13:56:00,
2013-03-05 09:11:00,63.1,52.0,30.17,ESE,109,0.0,-999.0,68,-99.99,,,0.00,478,weatherlink.com 1.10,2013-03-05 14:11:00,
2013-03-05 09:26:00,64.0,53.0,30.16,SSE,163,0.0,-999.0,67,-99.99,,,0.00,527,weatherlink.com 1.10,2013-03-05 14:26:00,
2013-03-05 09:41:00,65.5,54.0,30.17,SSW,206,0.0,-999.0,67,-99.99,,,0.00,577,weatherlink.com 1.10,2013-03-05 14:41:00,
2013-03-05 09:57:00,65.7,54.0,30.17,SE,142,2.0,-999.0,66,-99.99,,,0.00,621,weatherlink.com 1.10,2013-03-05 14:57:00,
2013-03-05 10:12:00,66.0,55.0,30.17,SE,142,1.0,-999.0,67,-99.99,,,0.00,664,weatherlink.com 1.10,2013-03-05 15:12:00,
2013-03-05 10:27:00,67.5,56.0,30.16,South,180,0.0,-999.0,66,-99.99,,,0.00,698,weatherlink.com 1.10,2013-03-05 15:27:00,
2013-03-05 10:42:00,68.4,56.0,30.16,ESE,114,0.0,-999.0,65,-99.99,,,0.00,744,weatherlink.com 1.10,2013-03-05 15:42:00,
2013-03-05 10:57:00,69.0,56.0,30.16,WSW,250,0.0,-999.0,64,-99.99,,,0.00,780,weatherlink.com 1.10,2013-03-05 15:57:00,
2013-03-05 11:12:00,69.5,57.0,30.16,SSW,205,1.0,-999.0,65,-99.99,,,0.00,895,weatherlink.com 1.10,2013-03-05 16:12:00,
2013-03-05 11:27:00,70.4,58.0,30.17,SW,217,2.0,-999.0,64,-99.99,,,0.00,977,weatherlink.com 1.10,2013-03-05 16:27:00,
2013-03-05 11:42:00,70.3,57.0,30.16,West,277,1.0,-999.0,64,-99.99,,,0.00,893,weatherlink.com 1.10,2013-03-05 16:42:00,
2013-03-05 11:57:00,70.4,58.0,30.16,SW,224,1.0,-999.0,64,-99.99,,,0.00,988,weatherlink.com 1.10,2013-03-05 16:57:00,
2013-03-05 12:12:00,71.0,58.0,30.15,WSW,240,0.0,-999.0,63,-99.99,,,0.00,997,weatherlink.com 1.10,2013-03-05 17:12:00,
2013-03-05 12:27:00,70.6,57.0,30.15,SSW,197,1.0,-999.0,63,-99.99,,,0.00,919,weatherlink.com 1.10,2013-03-05 17:27:00,
2013-03-05 12:42:00,71.1,58.0,30.14,SSW,203,5.0,-999.0,63,-99.99,,,0.00,904,weatherlink.com 1.10,2013-03-05 17:42:00,
2013-03-05 12:57:00,71.5,57.0,30.14,NNW,346,0.0,-999.0,61,-99.99,,,0.00,895,weatherlink.com 1.10,2013-03-05 17:57:00,
2013-03-05 13:12:00,71.6,58.0,30.13,SSW,206,0.0,-999.0,62,-99.99,,,0.00,888,weatherlink.com 1.10,2013-03-05 18:12:00,
2013-03-05 13:27:00,72.7,58.0,30.12,SSE,153,0.0,-999.0,60,-99.99,,,0.00,865,weatherlink.com 1.10,2013-03-05 18:27:00,
2013-03-05 13:42:00,72.0,56.0,30.11,West,274,0.0,-999.0,58,-99.99,,,0.00,853,weatherlink.com 1.10,2013-03-05 18:42:00,
2013-03-05 13:57:00,72.3,57.0,30.10,West,276,0.0,-999.0,59,-99.99,,,0.00,826,weatherlink.com 1.10,2013-03-05 18:57:00,
2013-03-05 14:12:00,72.9,57.0,30.10,South,182,1.0,-999.0,57,-99.99,,,0.00,807,weatherlink.com 1.10,2013-03-05 19:12:00,
2013-03-05 14:27:00,73.3,57.0,30.10,SSW,198,0.0,-999.0,56,-99.99,,,0.00,777,weatherlink.com 1.10,2013-03-05 19:27:00,
2013-03-05 14:42:00,73.0,56.0,30.10,South,176,0.0,-999.0,56,-99.99,,,0.00,740,weatherlink.com 1.10,2013-03-05 19:42:00,
2013-03-05 14:58:00,72.5,56.0,30.09,South,173,0.0,-999.0,57,-99.99,,,0.00,703,weatherlink.com 1.10,2013-03-05 19:58:00,
2013-03-05 15:12:00,72.3,56.0,30.10,South,188,2.0,-999.0,57,-99.99,,,0.00,659,weatherlink.com 1.10,2013-03-05 20:12:00,
2013-03-05 15:27:00,72.0,57.0,30.10,ENE,77,0.0,-999.0,59,-99.99,,,0.00,606,weatherlink.com 1.10,2013-03-05 20:27:00,
2013-03-05 15:42:00,72.6,57.0,30.10,West,276,0.0,-999.0,58,-99.99,,,0.00,568,weatherlink.com 1.10,2013-03-05 20:42:00,
2013-03-05 15:57:00,72.2,57.0,30.10,ESE,117,0.0,-999.0,59,-99.99,,,0.00,98,weatherlink.com 1.10,2013-03-05 20:57:00,
2013-03-05 16:12:00,71.4,57.0,30.10,ESE,121,0.0,-999.0,60,-99.99,,,0.00,100,weatherlink.com 1.10,2013-03-05 21:12:00,
2013-03-05 16:27:00,70.6,57.0,30.10,South,186,0.0,-999.0,62,-99.99,,,0.00,83,weatherlink.com 1.10,2013-03-05 21:27:00,
2013-03-05 16:42:00,70.0,57.0,30.09,SSE,165,2.0,-999.0,64,-99.99,,,0.00,65,weatherlink.com 1.10,2013-03-05 21:42:00,
2013-03-05 16:57:00,69.4,57.0,30.09,SW,215,2.0,-999.0,65,-99.99,,,0.00,39,weatherlink.com 1.10,2013-03-05 21:57:00,
2013-03-05 17:12:00,68.5,57.0,30.09,NW,313,1.0,-999.0,68,-99.99,,,0.00,54,weatherlink.com 1.10,2013-03-05 22:12:00,
2013-03-05 17:27:00,68.0,57.0,30.09,SSE,158,0.0,-999.0,69,-99.99,,,0.00,32,weatherlink.com 1.10,2013-03-05 22:27:00,
2013-03-05 17:42:00,67.6,57.0,30.09,SSW,200,2.0,-999.0,70,-99.99,,,0.00,26,weatherlink.com 1.10,2013-03-05 22:42:00,
2013-03-05 17:57:00,67.0,58.0,30.09,SSE,159,0.0,-999.0,72,-99.99,,,0.00,21,weatherlink.com 1.10,2013-03-05 22:57:00,
2013-03-05 18:12:00,66.4,58.0,30.08,SW,229,0.0,-999.0,73,-99.99,,,0.00,14,weatherlink.com 1.10,2013-03-05 23:12:00,
2013-03-05 18:27:00,65.9,58.0,30.07,SSW,209,0.0,-999.0,75,-99.99,,,0.00,5,weatherlink.com 1.10,2013-03-05 23:27:00,
2013-03-05 18:42:00,65.4,58.0,30.07,SSW,200,0.0,-999.0,77,-99.99,,,0.00,0,weatherlink.com 1.10,2013-03-05 23:42:00,
2013-03-05 18:57:00,64.8,58.0,30.07,SSW,211,0.0,-999.0,79,-99.99,,,0.00,0,weatherlink.com 1.10,2013-03-05 23:57:00,
2013-03-05 19:12:00,64.3,58.0,30.07,SSW,211,0.0,-999.0,81,-99.99,,,0.00,0,weatherlink.com 1.10,2013-03-06 00:12:00,
2013-03-05 19:28:00,63.7,58.0,30.06,SSE,150,0.0,-999.0,82,-99.99,,,0.00,0,weatherlink.com 1.10,2013-03-06 00:28:00,
2013-03-05 19:43:00,63.5,59.0,30.07,SW,231,1.0,-999.0,84,-99.99,,,0.00,0,weatherlink.com 1.10,2013-03-06 00:43:00,
2013-03-05 19:58:00,63.5,59.0,30.07,SSW,195,0.0,-999.0,85,-99.99,,,0.00,0,weatherlink.com 1.10,2013-03-06 00:58:00,
2013-03-05 20:13:00,63.4,59.0,30.06,SSW,198,0.0,-999.0,86,-99.99,,,0.00,0,weatherlink.com 1.10,2013-03-06 01:13:00,
2013-03-05 20:28:00,63.4,60.0,30.06,SW,234,0.0,-999.0,87,-99.99,,,0.00,0,weatherlink.com 1.10,2013-03-06 01:28:00,
2013-03-05 20:43:00,63.3,59.0,30.05,SSW,203,0.0,-999.0,87,-99.99,,,0.00,0,weatherlink.com 1.10,2013-03-06 01:43:00,
2013-03-05 20:58:00,63.3,60.0,30.05,SW,234,0.0,-999.0,88,-99.99,,,0.00,0,weatherlink.com 1.10,2013-03-06 01:58:00,
2013-03-05 21:13:00,63.3,60.0,30.05,SSW,207,1.0,-999.0,89,-99.99,,,0.00,0,weatherlink.com 1.10,2013-03-06 02:13:00,
2013-03-05 21:28:00,63.4,60.0,30.05,West,264,0.0,-999.0,89,-99.99,,,0.00,0,weatherlink.com 1.10,2013-03-06 02:28:00,
2013-03-05 21:43:00,63.5,60.0,30.05,West,259,1.0,-999.0,89,-99.99,,,0.00,0,weatherlink.com 1.10,2013-03-06 02:43:00,
2013-03-05 21:58:00,63.6,61.0,30.05,SSW,205,0.0,-999.0,90,-99.99,,,0.00,0,weatherlink.com 1.10,2013-03-06 02:58:00,
2013-03-05 22:13:00,63.8,61.0,30.05,South,188,0.0,-999.0,90,-99.99,,,0.00,0,weatherlink.com 1.10,2013-03-06 03:13:00,
2013-03-05 22:28:00,63.9,61.0,30.05,SW,230,0.0,-999.0,91,-99.99,,,0.00,0,weatherlink.com 1.10,2013-03-06 03:28:00,
2013-03-05 22:43:00,64.0,61.0,30.05,SSW,200,4.0,-999.0,91,-99.99,,,0.00,0,weatherlink.com 1.10,2013-03-06 03:43:00,
2013-03-05 22:58:00,64.4,62.0,30.05,SSW,202,1.0,-999.0,91,-99.99,,,0.00,0,weatherlink.com 1.10,2013-03-06 03:58:00,
2013-03-05 23:13:00,64.6,62.0,30.04,SSW,211,1.0,-999.0,91,-99.99,,,0.00,0,weatherlink.com 1.10,2013-03-06 04:13:00,
2013-03-05 23:28:00,64.8,62.0,30.04,NNW,336,0.0,-999.0,91,-99.99,,,0.00,0,weatherlink.com 1.10,2013-03-06 04:28:00,
2013-03-05 23:43:00,65.0,62.0,30.04,SSW,211,0.0,-999.0,90,-99.99,,,0.00,0,weatherlink.com 1.10,2013-03-06 04:43:00,
2013-03-05 23:58:00,65.2,62.0,30.04,South,185,6.0,-999.0,90,-99.99,,,0.00,0,weatherlink.com 1.10,2013-03-06 04:58:00,